Time;durP1;ratioP1;P1;durP2;ratioP2;P2;SDS_P1;SDS_P2;PMS_P1;PMS_P2;Temp;Humidity;BMP_temperature;BMP_pressure;BME280_temperature;BME280_humidity;BME280_pressure;Samples;Min_cycle;Max_cycle;Signal;HPM_P1;HPM_P2
2021/07/31 00:00:20;;;;;;;;;;;;;;;21.14;60.29;100519.72;2198187;39;114943;-53
2021/07/31 00:01:52;;;;;;;;;;;;;;;21.14;60.74;100522.50;2191257;39;116814;-54
2021/07/31 00:03:24;;;;;;;;;;;;;;;21.14;60.31;100527.31;2195805;39;115570;-54
2021/07/31 00:04:55;;;;;;;;;;;;;;;21.13;60.73;100523.66;2190361;39;114808;-53
2021/07/31 00:06:27;;;;;;;;;;;;;;;21.15;60.53;100526.16;2196053;39;115933;-53
2021/07/31 00:07:59;;;;;;;;;;;;;;;21.13;60.86;100528.44;2198830;39;115528;-53
2021/07/31 00:09:31;;;;;;;;;;;;;;;21.12;60.70;100527.59;2196563;39;115539;-53
2021/07/31 00:11:03;;;;;;;;;;;;;;;21.15;60.59;100531.78;2199424;39;115590;-53
2021/07/31 00:12:35;;;;;;;;;;;;;;;21.14;60.49;100530.13;2198174;39;116214;-54
2021/07/31 00:14:08;;;;;;;;;;;;;;;21.14;60.55;100530.94;2192000;39;115590;-54
2021/07/31 00:15:40;;;;;;;;;;;;;;;21.15;60.76;100529.81;2196523;39;115575;-53
2021/07/31 00:17:12;;;;;;;;;;;;;;;21.15;60.53;100529.81;2196325;39;115716;-53
2021/07/31 00:18:44;;;;;;;;;;;;;;;21.16;60.94;100530.63;2197762;39;114582;-53
2021/07/31 00:20:16;;;;;;;;;;;;;;;21.16;60.82;100531.47;2189318;39;115492;-53
2021/07/31 00:21:48;;;;;;;;;;;;;;;21.14;60.84;100528.13;2197979;39;113913;-54
2021/07/31 00:23:20;;;;;;;;;;;;;;;21.14;60.71;100533.75;2199713;39;114095;-53
2021/07/31 00:24:52;;;;;;;;;;;;;;;21.13;60.83;100536.88;2197089;39;113992;-54
2021/07/31 00:26:24;;;;;;;;;;;;;;;21.14;60.79;100542.19;2196415;39;113983;-53
2021/07/31 00:27:56;;;;;;;;;;;;;;;21.14;60.94;100539.38;2197314;39;113762;-53
2021/07/31 00:29:27;;;;;;;;;;;;;;;21.14;60.94;100538.53;2196659;39;113984;-53
2021/07/31 00:30:59;;;;;;;;;;;;;;;21.14;60.61;100538.53;2198851;39;113624;-53
2021/07/31 00:32:31;;;;;;;;;;;;;;;21.16;60.94;100542.69;2194303;39;113755;-54
2021/07/31 00:34:03;;;;;;;;;;;;;;;21.15;60.98;100543.00;2193384;39;113825;-54
2021/07/31 00:35:35;;;;;;;;;;;;;;;21.14;60.86;100535.72;2198010;39;113796;-53
2021/07/31 00:37:07;;;;;;;;;;;;;;;21.16;61.16;100541.88;2198426;39;114082;-53
2021/07/31 00:38:39;;;;;;;;;;;;;;;21.16;60.91;100542.69;2197115;39;114520;-53
2021/07/31 00:40:11;;;;;;;;;;;;;;;21.16;61.01;100537.09;2196126;39;114461;-52
2021/07/31 00:41:43;;;;;;;;;;;;;;;21.17;60.86;100547.16;2200033;39;114041;-53
2021/07/31 00:43:15;;;;;;;;;;;;;;;21.20;60.73;100540.06;2198087;39;115196;-53
2021/07/31 00:44:47;;;;;;;;;;;;;;;21.15;61.02;100543.84;2196905;39;114715;-53
2021/07/31 00:46:19;;;;;;;;;;;;;;;21.19;61.04;100542.03;2197258;39;113794;-54
2021/07/31 00:47:51;;;;;;;;;;;;;;;21.19;60.96;100544.03;2197742;39;114796;-53
2021/07/31 00:49:23;;;;;;;;;;;;;;;21.16;60.88;100542.69;2197663;39;114848;-54
2021/07/31 00:50:55;;;;;;;;;;;;;;;21.18;61.30;100536.75;2190990;39;114850;-54
2021/07/31 00:52:27;;;;;;;;;;;;;;;21.17;60.93;100535.06;2186559;39;114008;-53
2021/07/31 00:54:00;;;;;;;;;;;;;;;21.16;60.91;100539.88;2188660;39;114863;-53
2021/07/31 00:55:32;;;;;;;;;;;;;;;21.14;60.87;100533.75;2187775;39;114962;-54
2021/07/31 00:57:04;;;;;;;;;;;;;;;21.15;61.07;100540.22;2195253;39;114775;-53
2021/07/31 00:58:36;;;;;;;;;;;;;;;21.12;61.31;100541.63;2198093;39;114887;-61
2021/07/31 01:00:08;;;;;;;;;;;;;;;21.15;61.35;100537.41;2199971;39;114808;-53
2021/07/31 01:01:40;;;;;;;;;;;;;;;21.14;61.31;100538.53;2196551;39;114122;-54
2021/07/31 01:03:12;;;;;;;;;;;;;;;21.13;61.40;100539.69;2197240;39;114850;-54
2021/07/31 01:04:45;;;;;;;;;;;;;;;21.13;61.23;100539.69;2194303;39;115485;-53
2021/07/31 01:06:16;;;;;;;;;;;;;;;21.15;61.12;100532.59;2198568;39;115571;-53
2021/07/31 01:07:50;;;;;;;;;;;;;;;21.14;61.47;100535.72;2197932;39;116363;-53
2021/07/31 01:09:22;;;;;;;;;;;;;;;21.14;61.53;100533.75;2199292;39;115998;-53
2021/07/31 01:10:55;;;;;;;;;;;;;;;21.13;61.38;100531.25;2199912;39;114634;-53
2021/07/31 01:12:27;;;;;;;;;;;;;;;21.14;61.39;100536.56;2198251;39;114757;-53
2021/07/31 01:13:59;;;;;;;;;;;;;;;21.14;61.34;100536.56;2190315;39;114896;-53
2021/07/31 01:15:31;;;;;;;;;;;;;;;21.14;61.25;100541.34;2190124;39;115967;-53
2021/07/31 01:17:03;;;;;;;;;;;;;;;21.14;61.45;100535.72;2198660;39;115704;-52
2021/07/31 01:18:35;;;;;;;;;;;;;;;21.16;61.08;100539.88;2197245;39;114376;-53
2021/07/31 01:20:08;;;;;;;;;;;;;;;21.16;61.29;100545.50;2198114;39;115515;-53
2021/07/31 01:21:40;;;;;;;;;;;;;;;21.15;61.39;100537.41;2190970;39;115547;-53
2021/07/31 01:23:13;;;;;;;;;;;;;;;21.16;61.28;100541.88;2194771;39;114933;-53
2021/07/31 01:24:45;;;;;;;;;;;;;;;21.17;61.35;100546.31;2200587;39;115625;-54
2021/07/31 01:26:17;;;;;;;;;;;;;;;21.14;61.46;100544.16;2186776;39;113652;-53
2021/07/31 01:27:49;;;;;;;;;;;;;;;21.15;61.37;100543.00;2195114;39;113616;-56
2021/07/31 01:29:21;;;;;;;;;;;;;;;21.15;61.47;100543.00;2197880;39;113792;-53
2021/07/31 01:30:53;;;;;;;;;;;;;;;21.15;61.39;100543.84;2193643;39;113871;-53
2021/07/31 01:32:25;;;;;;;;;;;;;;;21.14;61.44;100541.34;2197459;39;113717;-53
2021/07/31 01:33:57;;;;;;;;;;;;;;;21.15;61.25;100540.22;2197784;39;113765;-53
2021/07/31 01:35:29;;;;;;;;;;;;;;;21.16;61.43;100550.28;2195505;39;114302;-54
2021/07/31 01:37:01;;;;;;;;;;;;;;;21.15;61.39;100557.06;2194814;39;113803;-53
2021/07/31 01:38:33;;;;;;;;;;;;;;;21.16;61.44;100547.50;2184443;39;113752;-54
2021/07/31 01:40:05;;;;;;;;;;;;;;;21.14;61.32;100547.81;2191963;39;114151;-53
2021/07/31 01:41:38;;;;;;;;;;;;;;;21.14;61.09;100552.59;2190789;39;113844;-53
2021/07/31 01:43:10;;;;;;;;;;;;;;;21.13;61.22;100543.31;2188477;39;113889;-53
2021/07/31 01:44:43;;;;;;;;;;;;;;;21.15;61.24;100540.22;2194414;39;114532;-53
2021/07/31 01:46:15;;;;;;;;;;;;;;;21.16;61.44;100541.88;2197669;39;113865;-53
2021/07/31 01:47:46;;;;;;;;;;;;;;;21.15;61.52;100541.03;2193042;39;113686;-54
2021/07/31 01:49:18;;;;;;;;;;;;;;;21.16;61.38;100545.50;2195040;39;114703;-53
2021/07/31 01:50:50;;;;;;;;;;;;;;;21.18;61.57;100546.00;2197242;39;114434;-53
2021/07/31 01:52:22;;;;;;;;;;;;;;;21.16;61.50;100537.09;2197888;39;114488;-54
2021/07/31 01:53:54;;;;;;;;;;;;;;;21.17;61.68;100543.50;2197322;39;114797;-53
2021/07/31 01:55:26;;;;;;;;;;;;;;;21.15;61.43;100537.41;2197547;39;114800;-53
2021/07/31 01:56:58;;;;;;;;;;;;;;;21.16;61.51;100544.69;2194887;39;114321;-53
2021/07/31 01:58:30;;;;;;;;;;;;;;;21.16;61.31;100539.06;2196088;39;114823;-54
2021/07/31 02:00:02;;;;;;;;;;;;;;;21.16;61.27;100536.25;2198493;39;115561;-53
2021/07/31 02:01:34;;;;;;;;;;;;;;;21.15;61.21;100535.41;2198817;39;113845;-53
2021/07/31 02:03:07;;;;;;;;;;;;;;;21.18;61.37;100531.13;2198648;39;114971;-53
2021/07/31 02:04:39;;;;;;;;;;;;;;;21.14;61.50;100532.91;2196009;39;115467;-53
2021/07/31 02:06:10;;;;;;;;;;;;;;;21.15;61.40;100532.59;2195581;39;114105;-54
2021/07/31 02:07:42;;;;;;;;;;;;;;;21.15;61.50;100524.19;2202744;39;115195;-53
2021/07/31 02:09:14;;;;;;;;;;;;;;;21.16;61.28;100537.09;2205613;39;114560;-53
2021/07/31 02:10:46;;;;;;;;;;;;;;;21.16;61.46;100528.66;2199353;39;115600;-53
2021/07/31 02:12:18;;;;;;;;;;;;;;;21.14;61.48;100536.56;2197182;39;115578;-53
2021/07/31 02:13:50;;;;;;;;;;;;;;;21.16;61.20;100537.09;2202377;39;115526;-54
2021/07/31 02:15:22;;;;;;;;;;;;;;;21.15;61.70;100531.78;2201506;39;115513;-54
2021/07/31 02:16:54;;;;;;;;;;;;;;;21.15;61.18;100532.59;2200726;39;115429;-53
2021/07/31 02:18:26;;;;;;;;;;;;;;;21.14;61.41;100532.91;2202485;39;114655;-54
2021/07/31 02:19:58;;;;;;;;;;;;;;;21.14;61.45;100536.56;2199256;39;114925;-53
2021/07/31 02:21:30;;;;;;;;;;;;;;;21.16;61.58;100539.06;2197225;39;114893;-53
2021/07/31 02:23:02;;;;;;;;;;;;;;;21.14;61.52;100542.19;2201851;39;115595;-53
2021/07/31 02:24:34;;;;;;;;;;;;;;;21.16;61.69;100539.88;2198404;39;115569;-53
2021/07/31 02:26:06;;;;;;;;;;;;;;;21.18;61.59;100542.34;2196922;39;115000;-52
2021/07/31 02:27:38;;;;;;;;;;;;;;;21.15;61.69;100541.03;2200667;39;115557;-54
2021/07/31 02:29:10;;;;;;;;;;;;;;;21.15;61.70;100535.41;2198180;39;115518;-53
2021/07/31 02:30:41;;;;;;;;;;;;;;;21.16;61.76;100539.88;2199727;39;115503;-53
2021/07/31 02:32:13;;;;;;;;;;;;;;;21.14;61.49;100535.72;2198149;39;113701;-54
2021/07/31 02:33:45;;;;;;;;;;;;;;;21.15;61.47;100537.41;2196484;39;113685;-54
2021/07/31 02:35:17;;;;;;;;;;;;;;;21.15;61.54;100532.59;2197524;39;114334;-53
2021/07/31 02:36:49;;;;;;;;;;;;;;;21.16;61.61;100534.28;2185035;39;115390;-53
2021/07/31 02:38:21;;;;;;;;;;;;;;;21.17;61.22;100532.25;2195553;39;114220;-53
2021/07/31 02:39:53;;;;;;;;;;;;;;;21.16;61.37;100522.19;2202033;39;113788;-54
2021/07/31 02:41:25;;;;;;;;;;;;;;;21.16;61.51;100527.81;2198634;39;113651;-54
2021/07/31 02:42:57;;;;;;;;;;;;;;;21.14;61.17;100533.75;2198544;39;113779;-53
2021/07/31 02:44:29;;;;;;;;;;;;;;;21.15;61.64;100529.81;2187523;39;113846;-54
2021/07/31 02:46:04;;;;;;;;;;;;;;;21.15;61.69;100537.41;2194787;39;114064;-54
2021/07/31 02:47:36;;;;;;;;;;;;;;;21.15;61.33;100532.59;2198551;39;113671;-54
2021/07/31 02:49:08;;;;;;;;;;;;;;;21.17;61.66;100526.66;2197774;39;114312;-53
2021/07/31 02:50:40;;;;;;;;;;;;;;;21.16;61.31;100534.28;2198096;39;113620;-53
2021/07/31 02:52:12;;;;;;;;;;;;;;;21.16;61.55;100533.44;2201220;39;114383;-53
2021/07/31 02:53:44;;;;;;;;;;;;;;;21.17;61.56;100538.72;2198428;39;114787;-53
2021/07/31 02:55:16;;;;;;;;;;;;;;;21.17;61.44;100535.06;2198291;39;113876;-53
2021/07/31 02:56:48;;;;;;;;;;;;;;;21.16;61.52;100531.47;2189644;39;114822;-53
2021/07/31 02:58:20;;;;;;;;;;;;;;;21.17;61.45;100535.06;2192580;39;113943;-53
2021/07/31 02:59:52;;;;;;;;;;;;;;;21.17;61.20;100533.09;2198276;39;114892;-53
2021/07/31 03:01:24;;;;;;;;;;;;;;;21.18;61.19;100533.94;2196991;39;115875;-54
2021/07/31 03:02:56;;;;;;;;;;;;;;;21.15;61.07;100535.41;2197895;39;114957;-56
2021/07/31 03:04:28;;;;;;;;;;;;;;;21.17;61.14;100535.06;2198136;39;114642;-53
2021/07/31 03:06:01;;;;;;;;;;;;;;;21.18;61.43;100533.94;2197314;39;114135;-53
2021/07/31 03:07:33;;;;;;;;;;;;;;;21.15;61.23;100531.78;2200072;39;114815;-53
2021/07/31 03:09:05;;;;;;;;;;;;;;;21.14;61.24;100542.19;2196663;39;115113;-53
2021/07/31 03:10:37;;;;;;;;;;;;;;;21.14;61.15;100538.53;2191033;39;114991;-53
2021/07/31 03:12:09;;;;;;;;;;;;;;;21.13;61.04;100540.50;2195644;39;114951;-53
2021/07/31 03:13:41;;;;;;;;;;;;;;;21.15;61.27;100543.84;2196773;39;114800;-53
2021/07/31 03:15:13;;;;;;;;;;;;;;;21.14;61.16;100542.19;2189369;39;115982;-54
2021/07/31 03:16:45;;;;;;;;;;;;;;;21.17;61.12;100540.69;2194765;39;116076;-53
2021/07/31 03:18:17;;;;;;;;;;;;;;;21.17;60.97;100538.72;2193841;39;115619;-53
2021/07/31 03:19:49;;;;;;;;;;;;;;;21.15;61.01;100538.22;2197683;39;114734;-53
2021/07/31 03:21:21;;;;;;;;;;;;;;;21.15;61.27;100535.41;2191975;39;114698;-53
2021/07/31 03:22:53;;;;;;;;;;;;;;;21.15;61.18;100535.41;2201588;39;115938;-53
2021/07/31 03:24:25;;;;;;;;;;;;;;;21.16;61.25;100536.25;2198011;39;116233;-53
2021/07/31 03:25:57;;;;;;;;;;;;;;;21.14;61.31;100539.38;2191920;39;114589;-52
2021/07/31 03:27:29;;;;;;;;;;;;;;;21.14;61.11;100545.00;2190805;39;115465;-53
2021/07/31 03:29:02;;;;;;;;;;;;;;;21.15;61.43;100543.84;2195287;39;115782;-53
2021/07/31 03:30:38;;;;;;;;;;;;;;;21.15;61.24;100541.03;2197767;39;115541;-53
2021/07/31 03:32:10;;;;;;;;;;;;;;;21.13;61.31;100536.88;2197565;39;114675;-54
2021/07/31 03:33:42;;;;;;;;;;;;;;;21.14;61.67;100541.34;2190520;39;115814;-53
2021/07/31 03:35:14;;;;;;;;;;;;;;;21.14;61.48;100545.00;2188559;39;115501;-53
2021/07/31 03:36:51;;;;;;;;;;;;;;;21.16;61.43;100541.88;2198267;39;115523;-54
2021/07/31 03:38:23;;;;;;;;;;;;;;;21.13;61.43;100540.50;2198025;39;113795;-53
2021/07/31 03:39:55;;;;;;;;;;;;;;;21.12;61.31;100538.81;2191337;39;113718;-52
2021/07/31 03:41:27;;;;;;;;;;;;;;;21.14;61.60;100546.97;2194439;39;113707;-53
2021/07/31 03:42:59;;;;;;;;;;;;;;;21.13;61.53;100546.13;2197626;39;113753;-54
2021/07/31 03:44:31;;;;;;;;;;;;;;;21.13;61.91;100546.13;2198227;39;114101;-53
2021/07/31 03:46:06;;;;;;;;;;;;;;;21.13;61.53;100553.72;2196438;39;113702;-53
2021/07/31 03:47:38;;;;;;;;;;;;;;;21.13;61.67;100548.13;2196620;39;113718;-53
2021/07/31 03:49:11;;;;;;;;;;;;;;;21.13;61.53;100548.94;2197841;39;113914;-53
2021/07/31 03:50:43;;;;;;;;;;;;;;;21.16;61.45;100553.09;2190984;39;113712;-53
2021/07/31 03:52:14;;;;;;;;;;;;;;;21.12;61.91;100558.47;2195715;39;113930;-53
2021/07/31 03:53:46;;;;;;;;;;;;;;;21.11;61.72;100554.03;2198026;39;113962;-54
2021/07/31 03:55:18;;;;;;;;;;;;;;;21.12;61.72;100557.69;2200933;39;113692;-53
2021/07/31 03:56:50;;;;;;;;;;;;;;;21.11;61.97;100558.81;2197081;39;113626;-53
2021/07/31 03:58:22;;;;;;;;;;;;;;;21.09;61.90;100553.53;2200250;39;114541;-54
2021/07/31 03:59:54;;;;;;;;;;;;;;;21.11;61.68;100551.22;2196214;39;114878;-53
2021/07/31 04:01:26;;;;;;;;;;;;;;;21.09;61.85;100559.13;2189845;39;114677;-53
2021/07/31 04:02:58;;;;;;;;;;;;;;;21.11;61.99;100556.84;2194884;39;115526;-53
2021/07/31 04:04:30;;;;;;;;;;;;;;;21.10;61.88;100560.81;2197709;39;115007;-53
2021/07/31 04:06:02;;;;;;;;;;;;;;;21.10;61.60;100563.63;2197869;39;113944;-53
2021/07/31 04:07:34;;;;;;;;;;;;;;;21.11;61.60;100561.63;2198279;39;114901;-53
2021/07/31 04:09:07;;;;;;;;;;;;;;;21.10;61.80;100563.63;2198194;39;114871;-53
2021/07/31 04:10:40;;;;;;;;;;;;;;;21.09;61.83;100573.19;2197819;39;114761;-53
2021/07/31 04:12:13;;;;;;;;;;;;;;;21.06;61.79;100562.59;2197516;39;114788;-53
2021/07/31 04:13:44;;;;;;;;;;;;;;;21.07;61.91;100566.25;2198178;39;113812;-53
2021/07/31 04:15:16;;;;;;;;;;;;;;;21.06;61.95;100567.38;2190983;39;113781;-54
2021/07/31 04:16:48;;;;;;;;;;;;;;;21.08;61.92;100576.31;2188912;39;114067;-53
2021/07/31 04:18:20;;;;;;;;;;;;;;;21.06;61.93;100573.00;2195550;39;114708;-53
2021/07/31 04:19:52;;;;;;;;;;;;;;;21.07;61.85;100575.50;2200532;39;114772;-54
2021/07/31 04:21:24;;;;;;;;;;;;;;;21.06;61.99;100579.47;2198014;39;115413;-52
2021/07/31 04:22:56;;;;;;;;;;;;;;;21.04;62.19;100586.53;2197145;39;116058;-53
2021/07/31 04:24:28;;;;;;;;;;;;;;;21.05;62.31;100576.97;2198109;39;115679;-53
2021/07/31 04:26:08;;;;;;;;;;;;;;;21.08;62.35;100581.91;2198081;39;115460;-53
2021/07/31 04:27:40;;;;;;;;;;;;;;;21.08;62.19;100581.91;2190784;39;115964;-54
2021/07/31 04:29:12;;;;;;;;;;;;;;;21.09;62.06;100583.59;2191404;39;115897;-53
2021/07/31 04:30:44;;;;;;;;;;;;;;;21.08;62.23;100593.16;2196573;39;114624;-54
2021/07/31 04:32:16;;;;;;;;;;;;;;;21.06;61.99;100593.50;2199529;39;115452;-53
2021/07/31 04:33:47;;;;;;;;;;;;;;;21.07;62.33;100591.53;2197015;39;115483;-53
2021/07/31 04:35:19;;;;;;;;;;;;;;;21.07;62.13;100591.53;2196906;39;115750;-53
2021/07/31 04:36:51;;;;;;;;;;;;;;;21.06;62.34;100592.66;2197678;39;115743;-54
2021/07/31 04:38:23;;;;;;;;;;;;;;;21.07;62.30;100592.34;2201403;39;115532;-54
2021/07/31 04:39:55;;;;;;;;;;;;;;;21.08;62.17;100593.16;2197249;39;115503;-53
2021/07/31 04:41:27;;;;;;;;;;;;;;;21.07;62.10;100592.34;2193058;39;116033;-53
2021/07/31 04:42:59;;;;;;;;;;;;;;;21.08;62.17;100581.91;2183580;39;113927;-53
2021/07/31 04:44:31;;;;;;;;;;;;;;;21.07;62.17;100597.16;2195294;39;113746;-54
2021/07/31 04:46:03;;;;;;;;;;;;;;;21.07;62.14;100597.97;2190761;39;113747;-53
2021/07/31 04:47:37;;;;;;;;;;;;;;;21.07;62.26;100603.59;2195866;39;113902;-53
2021/07/31 04:49:09;;;;;;;;;;;;;;;21.05;61.99;100600.25;2190474;39;113849;-54
2021/07/31 04:50:41;;;;;;;;;;;;;;;21.07;62.32;100603.59;2195244;39;113718;-54
2021/07/31 04:52:13;;;;;;;;;;;;;;;21.08;62.04;100610.84;2199218;39;113806;-53
2021/07/31 04:53:46;;;;;;;;;;;;;;;21.07;62.39;100614.00;2192262;39;113969;-53
2021/07/31 04:55:18;;;;;;;;;;;;;;;21.08;61.99;100607.22;2197055;39;113929;-53
2021/07/31 04:56:50;;;;;;;;;;;;;;;21.08;62.22;100607.22;2190185;39;113714;-53
2021/07/31 04:58:23;;;;;;;;;;;;;;;21.09;62.15;100606.91;2194784;39;113949;-53
2021/07/31 04:59:55;;;;;;;;;;;;;;;21.09;62.09;100601.28;2184246;39;114567;-52
2021/07/31 05:01:27;;;;;;;;;;;;;;;21.09;62.19;100603.25;2193216;39;113790;-53
2021/07/31 05:03:03;;;;;;;;;;;;;;;21.06;62.30;100596.31;2191384;39;114400;-53
2021/07/31 05:04:35;;;;;;;;;;;;;;;21.10;62.49;100607.72;2191849;39;113952;-53
2021/07/31 05:06:07;;;;;;;;;;;;;;;21.08;62.45;100610.00;2190009;39;114812;-53
2021/07/31 05:07:39;;;;;;;;;;;;;;;21.09;62.33;100611.69;2187754;39;114988;-53
2021/07/31 05:09:10;;;;;;;;;;;;;;;21.08;62.09;100613.66;2182533;39;114084;-53
2021/07/31 05:10:43;;;;;;;;;;;;;;;21.09;62.28;100606.91;2191952;39;114810;-53
2021/07/31 05:12:15;;;;;;;;;;;;;;;21.06;62.37;100601.09;2197979;39;113768;-53
2021/07/31 05:13:48;;;;;;;;;;;;;;;21.07;62.40;100605.56;2197582;39;113937;-53
2021/07/31 05:15:20;;;;;;;;;;;;;;;21.07;62.07;100608.38;2190414;39;115573;-54
2021/07/31 05:16:52;;;;;;;;;;;;;;;21.07;62.17;100608.38;2193879;39;114123;-54
2021/07/31 05:18:24;;;;;;;;;;;;;;;21.09;62.13;100615.31;2195699;39;114979;-52
2021/07/31 05:19:56;;;;;;;;;;;;;;;21.07;62.17;100609.22;2197080;39;114628;-54
2021/07/31 05:21:28;;;;;;;;;;;;;;;21.06;62.41;100610.34;2199120;39;114713;-54
2021/07/31 05:23:00;;;;;;;;;;;;;;;21.06;62.36;100615.97;2200691;39;114747;-53
2021/07/31 05:24:35;;;;;;;;;;;;;;;21.07;62.12;100614.00;2197554;39;114777;-54
2021/07/31 05:26:08;;;;;;;;;;;;;;;21.07;62.43;100614.81;2197595;39;114778;-54
2021/07/31 05:27:40;;;;;;;;;;;;;;;21.08;62.20;100608.03;2201463;39;115542;-53
2021/07/31 05:29:12;;;;;;;;;;;;;;;21.08;62.25;100615.63;2196832;39;115592;-53
2021/07/31 05:30:44;;;;;;;;;;;;;;;21.09;62.12;100611.69;2194595;39;115535;-53
2021/07/31 05:32:16;;;;;;;;;;;;;;;21.08;62.00;100610.84;2191607;39;116069;-53
2021/07/31 05:33:48;;;;;;;;;;;;;;;21.06;62.27;100609.53;2197695;39;115773;-54
2021/07/31 05:35:20;;;;;;;;;;;;;;;21.09;62.34;100617.28;2193497;39;115623;-53
2021/07/31 05:36:52;;;;;;;;;;;;;;;21.08;62.37;100612.81;2192598;39;115478;-53
2021/07/31 05:38:24;;;;;;;;;;;;;;;21.06;62.33;100615.97;2190944;39;115416;-53
2021/07/31 05:39:56;;;;;;;;;;;;;;;21.07;62.50;100620.44;2189910;39;115648;-53
2021/07/31 05:41:28;;;;;;;;;;;;;;;21.07;62.35;100625.22;2199433;39;114525;-53
2021/07/31 05:43:00;;;;;;;;;;;;;;;21.08;61.99;100621.25;2198242;39;115594;-53
2021/07/31 05:44:33;;;;;;;;;;;;;;;21.09;62.28;100626.56;2193303;39;115958;-53
2021/07/31 05:46:05;;;;;;;;;;;;;;;21.08;62.33;100622.09;2192340;39;115525;-53
2021/07/31 05:47:37;;;;;;;;;;;;;;;21.09;62.38;100617.28;2204242;39;115485;-53
2021/07/31 05:49:09;;;;;;;;;;;;;;;21.06;62.32;100627.22;2201484;39;114078;-53
2021/07/31 05:50:41;;;;;;;;;;;;;;;21.08;62.44;100629.69;2197795;39;113763;-53
2021/07/31 05:52:13;;;;;;;;;;;;;;;21.07;62.23;100630.84;2191153;39;113821;-53
2021/07/31 05:53:45;;;;;;;;;;;;;;;21.06;62.29;100632.00;2195216;39;113757;-53
2021/07/31 05:55:17;;;;;;;;;;;;;;;21.07;62.18;100634.50;2191363;39;113879;-53
2021/07/31 05:56:49;;;;;;;;;;;;;;;21.06;62.40;100641.25;2196255;39;113669;-53
2021/07/31 05:58:21;;;;;;;;;;;;;;;21.08;62.51;100638.94;2198003;39;113923;-53
2021/07/31 05:59:53;;;;;;;;;;;;;;;21.06;62.36;100632.81;2197265;39;113895;-53
2021/07/31 06:01:25;;;;;;;;;;;;;;;21.06;62.52;100640.41;2188749;39;114908;-53
2021/07/31 06:02:57;;;;;;;;;;;;;;;21.06;62.43;100632.00;2195195;39;114002;-53
2021/07/31 06:04:29;;;;;;;;;;;;;;;21.08;62.53;100640.91;2198258;39;113682;-53
2021/07/31 06:06:01;;;;;;;;;;;;;;;21.06;62.21;100643.22;2200593;39;113872;-53
2021/07/31 06:07:33;;;;;;;;;;;;;;;21.05;62.45;100641.56;2199995;39;113783;-53
2021/07/31 06:09:05;;;;;;;;;;;;;;;21.06;62.45;100638.44;2193764;39;113898;-54
2021/07/31 06:10:37;;;;;;;;;;;;;;;21.04;62.46;100651.97;2189901;39;114720;-52
2021/07/31 06:12:10;;;;;;;;;;;;;;;21.05;62.13;100642.41;2196437;39;114701;-53
2021/07/31 06:13:42;;;;;;;;;;;;;;;21.04;62.43;100643.53;2195113;39;114909;-53
2021/07/31 06:15:14;;;;;;;;;;;;;;;21.04;62.19;100642.72;2189446;39;114180;-53
2021/07/31 06:16:46;;;;;;;;;;;;;;;21.03;62.28;100643.88;2196202;39;113811;-53
2021/07/31 06:18:18;;;;;;;;;;;;;;;21.05;62.39;100638.75;2190994;39;115678;-53
2021/07/31 06:19:50;;;;;;;;;;;;;;;21.03;62.71;100641.88;2191470;39;114753;-53
2021/07/31 06:21:21;;;;;;;;;;;;;;;21.04;62.63;100642.72;2191745;39;115398;-53
2021/07/31 06:22:53;;;;;;;;;;;;;;;21.03;62.21;100647.50;2191083;39;114786;-53
2021/07/31 06:24:25;;;;;;;;;;;;;;;21.04;62.32;100642.72;2193169;39;114876;-53
2021/07/31 06:26:01;;;;;;;;;;;;;;;21.05;62.13;100641.56;2190570;39;115183;-53
2021/07/31 06:27:33;;;;;;;;;;;;;;;21.04;62.36;100645.50;2193348;39;114841;-53
2021/07/31 06:29:05;;;;;;;;;;;;;;;21.04;62.41;100643.53;2191918;39;115425;-54
2021/07/31 06:30:37;;;;;;;;;;;;;;;21.04;62.48;100642.72;2193066;39;114894;-53
2021/07/31 06:32:09;;;;;;;;;;;;;;;21.04;62.38;100649.16;2191182;39;114578;-53
2021/07/31 06:33:41;;;;;;;;;;;;;;;21.03;62.27;100653.09;2190869;39;114707;-54
2021/07/31 06:35:13;;;;;;;;;;;;;;;21.03;62.27;100650.31;2190251;39;115075;-54
2021/07/31 06:36:45;;;;;;;;;;;;;;;21.04;62.54;100651.13;2184725;39;114512;-54
2021/07/31 06:38:17;;;;;;;;;;;;;;;21.03;62.38;100655.91;2191442;39;115685;-54
2021/07/31 06:39:49;;;;;;;;;;;;;;;21.05;62.40;100661.22;2191470;39;115490;-53
2021/07/31 06:41:21;;;;;;;;;;;;;;;21.02;62.30;100659.06;2191207;39;114507;-54
2021/07/31 06:42:53;;;;;;;;;;;;;;;21.02;62.24;100654.28;2191932;39;115566;-53
2021/07/31 06:44:25;;;;;;;;;;;;;;;21.03;62.48;100657.94;2190742;39;115925;-53
2021/07/31 06:45:57;;;;;;;;;;;;;;;21.03;62.43;100655.13;2187130;39;115991;-53
2021/07/31 06:47:29;;;;;;;;;;;;;;;21.02;62.71;100651.47;2191715;39;115543;-53
2021/07/31 06:49:01;;;;;;;;;;;;;;;21.05;62.53;100658.41;2191039;39;116099;-54
2021/07/31 06:50:33;;;;;;;;;;;;;;;21.05;62.22;100656.44;2189349;39;116152;-53
2021/07/31 06:52:06;;;;;;;;;;;;;;;21.05;62.62;100661.22;2191336;39;115415;-53
2021/07/31 06:53:38;;;;;;;;;;;;;;;21.03;62.59;100660.72;2193794;39;114445;-53
2021/07/31 06:55:10;;;;;;;;;;;;;;;21.04;62.38;100662.38;2192104;39;113742;-53
2021/07/31 06:56:42;;;;;;;;;;;;;;;21.03;62.27;100671.97;2192092;39;113975;-53
2021/07/31 06:58:14;;;;;;;;;;;;;;;21.08;62.63;100674.63;2191295;39;113611;-53
2021/07/31 06:59:46;;;;;;;;;;;;;;;21.05;62.33;100666.84;2190940;39;113643;-54
2021/07/31 07:01:18;;;;;;;;;;;;;;;21.04;62.67;100671.63;2188811;39;114193;-53
2021/07/31 07:02:50;;;;;;;;;;;;;;;21.06;62.60;100679.75;2189212;39;114180;-53
2021/07/31 07:04:22;;;;;;;;;;;;;;;21.04;62.65;100673.59;2190943;39;114014;-53
2021/07/31 07:05:54;;;;;;;;;;;;;;;21.05;62.52;100673.28;2190299;39;113950;-53
2021/07/31 07:07:26;;;;;;;;;;;;;;;21.06;62.53;100680.59;2191591;39;113782;-54
2021/07/31 07:08:58;;;;;;;;;;;;;;;21.05;62.62;100669.66;2190364;39;113809;-53
2021/07/31 07:10:30;;;;;;;;;;;;;;;21.07;62.59;100673.00;2190823;39;114127;-54
2021/07/31 07:12:02;;;;;;;;;;;;;;;21.06;62.38;100665.69;2190919;39;113607;-53
2021/07/31 07:13:34;;;;;;;;;;;;;;;21.08;62.69;100675.47;2194991;39;113683;-57
2021/07/31 07:15:06;;;;;;;;;;;;;;;21.06;62.69;100679.75;2197558;39;113705;-53
2021/07/31 07:16:38;;;;;;;;;;;;;;;21.09;62.43;100676.28;2194918;39;114685;-53
2021/07/31 07:18:10;;;;;;;;;;;;;;;21.08;62.69;100675.47;2196396;39;114735;-53
2021/07/31 07:19:42;;;;;;;;;;;;;;;21.12;62.65;100681.28;2201277;39;115076;-53
2021/07/31 07:21:14;;;;;;;;;;;;;;;21.10;62.48;100680.78;2190752;39;114670;-54
2021/07/31 07:22:45;;;;;;;;;;;;;;;21.10;62.43;100686.38;2192479;39;114208;-53
2021/07/31 07:24:17;;;;;;;;;;;;;;;21.10;62.35;100675.97;2197821;39;114155;-53
2021/07/31 07:25:49;;;;;;;;;;;;;;;21.09;62.54;100671.50;2199418;39;114927;-54
2021/07/31 07:27:21;;;;;;;;;;;;;;;21.07;62.32;100671.00;2199764;39;114673;-54
2021/07/31 07:28:53;;;;;;;;;;;;;;;21.09;62.53;100671.50;2197689;39;116106;-55
2021/07/31 07:30:25;;;;;;;;;;;;;;;21.15;62.61;100673.09;2200890;39;113780;-53
2021/07/31 07:31:57;;;;;;;;;;;;;;;21.09;62.68;100679.94;2189262;39;114898;-52
2021/07/31 07:33:29;;;;;;;;;;;;;;;21.08;62.40;100683.06;2191218;39;114915;-53
2021/07/31 07:35:01;;;;;;;;;;;;;;;21.06;62.61;100680.59;2187150;39;114764;-54
2021/07/31 07:36:33;;;;;;;;;;;;;;;21.06;62.55;100683.38;2198452;39;114724;-53
2021/07/31 07:38:05;;;;;;;;;;;;;;;21.07;62.62;100689.84;2201610;39;114546;-54
2021/07/31 07:39:37;;;;;;;;;;;;;;;21.05;62.30;100681.72;2190752;39;115423;-54
2021/07/31 07:41:09;;;;;;;;;;;;;;;21.05;62.49;100692.97;2195699;39;115553;-53
2021/07/31 07:42:41;;;;;;;;;;;;;;;21.06;62.40;100699.41;2198690;39;115612;-53
2021/07/31 07:44:13;;;;;;;;;;;;;;;21.05;62.41;100698.56;2191306;39;116094;-53
2021/07/31 07:45:45;;;;;;;;;;;;;;;21.06;62.18;100686.19;2198860;39;116040;-53
2021/07/31 07:47:17;;;;;;;;;;;;;;;21.05;62.32;100687.34;2194616;39;115551;-53